LFBZ 181700Z AUTO 28011KT 9999 FEW016/// BKN030/// BKN040/// ///CB 20/17 Q1020 TEMPO 32015G25KT 4000 SHRA BKN010 BKN030TCU

ElémentsDécodage
LFBZ Station météo située sur l'aérodrome de BIARRITZ Bayonne-Anglet
181700Z émis le 18 du mois à 17h00 UTC
AUTO Bulletin édité par un automate
28011KT vent du 280°, 11 noeuds
9999 visibilité horizontale supérieure à 10 Km
FEW016/// nuages rares (1/8 à 2/8) à 1600 pieds
 type de nuage non observable
BKN030/// nuages morcelés (5/8 à 7/8) à 3000 pieds
 type de nuage non observable
BKN040/// nuages morcelés (5/8 à 7/8) à 4000 pieds
 type de nuage non observable
///CB élement non décodé
20/17 température 20°C, point de rosée 17°C
 soit une humidité relative de 83%
Q1020 la pression au niveau de la mer (QNH) est de 1020 hPa
TEMPO fluctuation temporaire prévue
32015G25KT vent du 320°, moyenne: 15 noeuds, avec rafales à 25 noeuds
4000 visibilité horizontale de 4000 mètres
SHRA averse(s) de pluie
BKN010 nuages morcelés (5/8 à 7/8) à 1000 pieds
BKN030TCU nuages morcelés (5/8 à 7/8) à 3000 pieds
 présence de cumulus congestus